createdAt,value
2019-06-26T00:00:23.285Z,98.77
2019-06-26T00:02:55.430Z,100.00
2019-06-26T00:05:27.407Z,100.00
2019-06-26T00:07:59.452Z,100.00
2019-06-26T00:10:31.348Z,100.00
2019-06-26T00:13:04.731Z,100.00
2019-06-26T00:15:36.730Z,100.00
2019-06-26T00:18:08.831Z,100.00
2019-06-26T00:20:40.798Z,100.00
2019-06-26T00:23:12.766Z,100.00
2019-06-26T00:25:44.694Z,100.00
2019-06-26T00:28:16.777Z,100.00
2019-06-26T00:30:48.768Z,100.00
2019-06-26T00:33:20.749Z,100.00
2019-06-26T00:35:53.065Z,100.00
2019-06-26T00:38:25.147Z,100.00
2019-06-26T00:40:57.058Z,100.00
2019-06-26T00:43:42.062Z,100.00
2019-06-26T00:46:09.055Z,100.00
2019-06-26T00:48:41.467Z,100.00
2019-06-26T00:51:13.446Z,100.00
2019-06-26T00:53:45.342Z,100.00
2019-06-26T00:56:17.289Z,100.00
2019-06-26T00:58:49.485Z,100.00
2019-06-26T01:01:21.466Z,100.00
2019-06-26T01:03:55.060Z,100.00
2019-06-26T01:06:45.245Z,100.00
2019-06-26T01:09:17.377Z,100.00
2019-06-26T01:11:49.425Z,100.00
2019-06-26T01:14:21.401Z,100.00
2019-06-26T01:16:53.383Z,100.00
2019-06-26T01:19:25.423Z,100.00
2019-06-26T01:21:57.317Z,100.00
2019-06-26T01:24:29.393Z,100.00
2019-06-26T01:27:01.306Z,100.00
2019-06-26T01:29:33.270Z,100.00
2019-06-26T01:32:06.725Z,100.00
2019-06-26T01:34:38.858Z,100.00
2019-06-26T01:37:11.825Z,100.00
2019-06-26T01:39:44.584Z,100.00
2019-06-26T01:42:16.499Z,100.00
2019-06-26T01:44:48.535Z,100.00
2019-06-26T01:47:20.442Z,100.00
2019-06-26T01:49:52.424Z,100.00
2019-06-26T01:52:24.250Z,100.00
2019-06-26T01:54:56.272Z,100.00
2019-06-26T01:57:28.281Z,100.00
2019-06-26T02:00:00.283Z,100.00
2019-06-26T02:02:32.353Z,100.00
2019-06-26T02:05:06.395Z,100.00
2019-06-26T02:07:38.374Z,100.00
2019-06-26T02:10:10.931Z,100.00
2019-06-26T02:12:43.146Z,100.00
2019-06-26T02:15:16.218Z,100.00
2019-06-26T02:17:48.203Z,100.00
2019-06-26T02:20:20.285Z,100.00
2019-06-26T02:22:52.589Z,100.00
2019-06-26T02:25:24.487Z,100.00
2019-06-26T02:27:56.842Z,100.00
2019-06-26T02:30:28.851Z,100.00
2019-06-26T02:33:00.991Z,100.00
2019-06-26T02:35:33.125Z,100.00
2019-06-26T02:38:05.063Z,100.00
2019-06-26T02:40:37.214Z,100.00
2019-06-26T02:43:09.736Z,100.00
2019-06-26T02:45:42.016Z,100.00
2019-06-26T02:48:14.089Z,100.00
2019-06-26T02:50:46.128Z,100.00
2019-06-26T02:53:18.195Z,100.00
2019-06-26T02:55:50.231Z,100.00
2019-06-26T02:58:22.146Z,100.00
2019-06-26T03:00:54.342Z,100.00
2019-06-26T03:03:26.488Z,100.00
2019-06-26T03:05:58.415Z,100.00
2019-06-26T03:08:30.388Z,100.00
2019-06-26T03:11:02.484Z,100.00
2019-06-26T03:13:34.304Z,100.00
2019-06-26T03:16:06.486Z,100.00
2019-06-26T03:18:38.648Z,100.00
2019-06-26T03:21:10.680Z,100.00
2019-06-26T03:23:42.687Z,100.00
2019-06-26T03:26:14.665Z,100.00
2019-06-26T03:28:46.671Z,100.00
2019-06-26T03:31:18.725Z,100.00
2019-06-26T03:33:50.816Z,100.00
2019-06-26T03:36:23.002Z,100.00
2019-06-26T03:38:55.035Z,100.00
2019-06-26T03:41:27.147Z,100.00
2019-06-26T03:43:58.990Z,100.00
2019-06-26T03:46:31.095Z,100.00
2019-06-26T03:49:03.000Z,100.00
2019-06-26T03:51:35.066Z,100.00
2019-06-26T03:54:07.140Z,100.00
2019-06-26T03:56:39.098Z,100.00
2019-06-26T03:59:11.105Z,100.00
2019-06-26T04:01:43.316Z,100.00
2019-06-26T04:04:15.392Z,100.00
2019-06-26T04:06:47.393Z,100.00
2019-06-26T04:09:19.416Z,100.00
2019-06-26T04:11:51.422Z,100.00
2019-06-26T04:14:23.382Z,100.00
2019-06-26T04:16:55.601Z,100.00
2019-06-26T04:19:27.697Z,100.00
2019-06-26T04:21:59.739Z,100.00
2019-06-26T04:24:31.733Z,100.00
2019-06-26T04:27:03.860Z,100.00
2019-06-26T04:29:35.854Z,100.00
2019-06-26T04:32:09.085Z,100.00
2019-06-26T04:34:40.838Z,100.00
2019-06-26T04:37:12.813Z,100.00
2019-06-26T04:39:44.766Z,100.00
2019-06-26T04:42:16.746Z,100.00
2019-06-26T04:44:48.752Z,100.00
2019-06-26T04:47:20.585Z,99.64
2019-06-26T04:49:52.588Z,99.53
2019-06-26T04:52:24.517Z,97.12
2019-06-26T04:54:56.679Z,92.48
2019-06-26T04:57:28.579Z,94.35
2019-06-26T05:00:00.490Z,93.08
2019-06-26T05:02:32.465Z,91.79
2019-06-26T05:05:06.556Z,90.95
2019-06-26T05:07:38.748Z,92.10
2019-06-26T05:10:11.098Z,89.98
2019-06-26T05:12:43.159Z,89.06
2019-06-26T05:15:15.522Z,89.79
2019-06-26T05:17:47.492Z,86.98
2019-06-26T05:20:19.526Z,86.40
2019-06-26T05:22:51.825Z,84.61
2019-06-26T05:25:23.632Z,85.21
2019-06-26T05:27:55.846Z,85.04
2019-06-26T05:30:27.986Z,85.66
2019-06-26T05:33:00.219Z,84.80
2019-06-26T05:35:35.023Z,84.03
2019-06-26T05:38:06.153Z,79.47
2019-06-26T05:40:38.207Z,81.69
2019-06-26T05:43:10.181Z,79.72
2019-06-26T05:45:42.132Z,81.30
2019-06-26T05:48:14.287Z,80.97
2019-06-26T05:50:46.407Z,76.77
2019-06-26T05:53:18.379Z,74.32
2019-06-26T05:55:50.332Z,77.11
2019-06-26T05:58:22.348Z,74.84
2019-06-26T06:00:55.397Z,76.31
2019-06-26T06:03:27.450Z,71.29
2019-06-26T06:05:59.486Z,70.66
2019-06-26T06:08:31.464Z,69.99
2019-06-26T06:11:03.549Z,67.97
2019-06-26T06:13:35.575Z,67.61
2019-06-26T06:16:07.548Z,68.23
2019-06-26T06:18:39.588Z,66.80
2019-06-26T06:21:11.499Z,69.03
2019-06-26T06:23:43.335Z,70.14
2019-06-26T06:26:15.493Z,65.27
2019-06-26T06:28:47.566Z,70.10
2019-06-26T06:31:20.831Z,69.80
2019-06-26T06:33:52.841Z,68.79
2019-06-26T06:36:25.979Z,67.31
2019-06-26T06:38:57.874Z,67.86
2019-06-26T06:41:29.807Z,68.75
2019-06-26T06:44:01.813Z,67.25
2019-06-26T06:46:33.956Z,66.55
2019-06-26T06:49:06.032Z,64.81
2019-06-26T06:51:38.311Z,68.31
2019-06-26T06:54:10.366Z,65.91
2019-06-26T06:56:42.533Z,61.50
2019-06-26T06:59:14.498Z,66.43
2019-06-26T07:01:46.457Z,64.26
2019-06-26T07:04:18.543Z,64.40
2019-06-26T07:06:50.438Z,65.77
2019-06-26T07:09:24.855Z,61.69
2019-06-26T07:11:56.897Z,62.11
2019-06-26T07:14:29.037Z,59.36
2019-06-26T07:17:01.601Z,60.11
2019-06-26T07:19:33.829Z,62.38
2019-06-26T07:22:07.549Z,61.85
2019-06-26T07:24:39.539Z,58.79
2019-06-26T07:27:11.547Z,57.75
2019-06-26T07:29:43.379Z,58.11
2019-06-26T07:32:15.413Z,60.17
2019-06-26T07:34:47.822Z,61.01
2019-06-26T07:37:20.330Z,57.24
2019-06-26T07:39:52.377Z,58.91
2019-06-26T07:42:24.402Z,55.36
2019-06-26T07:44:57.687Z,58.40
2019-06-26T07:47:42.415Z,58.62
2019-06-26T07:50:03.394Z,56.42
2019-06-26T07:52:35.823Z,55.42
2019-06-26T07:55:11.772Z,54.07
2019-06-26T07:57:43.247Z,54.03
2019-06-26T08:00:16.192Z,53.59
2019-06-26T08:02:48.746Z,53.52
2019-06-26T08:05:21.053Z,52.21
2019-06-26T08:07:58.536Z,53.78
2019-06-26T08:10:33.558Z,54.52
2019-06-26T08:13:05.666Z,51.24
2019-06-26T08:15:37.634Z,53.53
2019-06-26T08:18:09.509Z,52.68
2019-06-26T08:20:55.491Z,51.31
2019-06-26T08:23:15.145Z,47.30
2019-06-26T08:25:47.189Z,47.11
2019-06-26T08:28:19.255Z,49.32
2019-06-26T08:30:51.381Z,50.22
2019-06-26T08:33:23.357Z,49.00
2019-06-26T08:35:55.474Z,48.68
2019-06-26T08:38:27.358Z,45.61
2019-06-26T08:40:59.357Z,43.69
2019-06-26T08:43:31.668Z,44.23
2019-06-26T08:46:03.605Z,44.96
2019-06-26T08:48:40.027Z,44.58
2019-06-26T08:51:09.264Z,41.92
2019-06-26T08:53:41.540Z,42.01
2019-06-26T08:56:13.612Z,43.34
2019-06-26T08:58:45.507Z,43.12
2019-06-26T09:01:17.538Z,42.55
2019-06-26T09:03:49.494Z,42.71
2019-06-26T09:06:21.560Z,42.34
2019-06-26T09:08:53.548Z,41.03
2019-06-26T09:11:25.685Z,41.62
2019-06-26T09:13:58.142Z,40.51
2019-06-26T09:16:30.236Z,39.17
2019-06-26T09:19:02.270Z,40.60
2019-06-26T09:21:42.526Z,39.77
2019-06-26T09:24:15.015Z,39.30
2019-06-26T09:26:46.983Z,41.68
2019-06-26T09:29:19.235Z,40.17
2019-06-26T09:31:51.207Z,40.38
2019-06-26T09:34:23.441Z,40.10
2019-06-26T09:36:55.470Z,40.86
2019-06-26T09:39:27.720Z,40.75
2019-06-26T09:41:59.761Z,40.99
2019-06-26T09:44:31.643Z,41.23
2019-06-26T09:47:03.725Z,39.39
2019-06-26T09:49:35.746Z,40.16
2019-06-26T09:52:07.715Z,38.00
2019-06-26T09:54:39.832Z,38.30
2019-06-26T09:57:11.824Z,38.30
2019-06-26T09:59:43.767Z,40.18
2019-06-26T10:02:15.912Z,40.26
2019-06-26T10:04:47.928Z,38.15
2019-06-26T10:07:20.004Z,38.15
2019-06-26T10:09:52.001Z,40.46
2019-06-26T10:12:23.969Z,37.54
2019-06-26T10:14:55.891Z,37.47
2019-06-26T10:17:27.834Z,37.47
2019-06-26T10:19:59.771Z,40.01
2019-06-26T10:22:31.734Z,36.85
2019-06-26T10:25:04.416Z,38.29
2019-06-26T10:27:36.550Z,37.69
2019-06-26T10:30:09.476Z,40.08
2019-06-26T10:32:41.423Z,38.31
2019-06-26T10:35:13.969Z,39.36
2019-06-26T10:37:45.998Z,37.30
2019-06-26T10:40:18.722Z,34.45
2019-06-26T10:42:51.132Z,35.85
2019-06-26T10:45:23.299Z,37.57
2019-06-26T10:47:55.399Z,34.92
2019-06-26T10:50:27.398Z,34.07
2019-06-26T10:53:00.281Z,34.80
2019-06-26T10:55:32.315Z,35.11
2019-06-26T10:58:04.329Z,36.07
2019-06-26T11:00:36.592Z,36.43
2019-06-26T11:03:08.597Z,35.63
2019-06-26T11:05:41.425Z,34.20
2019-06-26T11:08:13.381Z,33.73
2019-06-26T11:10:45.352Z,34.21
2019-06-26T11:13:17.367Z,34.48
2019-06-26T11:15:49.637Z,34.24
2019-06-26T11:18:21.508Z,31.99
2019-06-26T11:20:53.414Z,33.60
2019-06-26T11:23:25.426Z,32.16
2019-06-26T11:25:57.420Z,30.96
2019-06-26T11:28:29.417Z,32.83
2019-06-26T11:31:01.302Z,33.13
2019-06-26T11:33:33.268Z,31.77
2019-06-26T11:36:05.234Z,30.38
2019-06-26T11:38:37.254Z,30.81
2019-06-26T11:41:09.225Z,30.40
2019-06-26T11:43:41.173Z,28.74
2019-06-26T11:46:13.613Z,29.85
2019-06-26T11:48:45.819Z,28.57
2019-06-26T11:51:19.057Z,28.98
2019-06-26T11:53:51.152Z,31.83
2019-06-26T11:56:23.281Z,29.29
2019-06-26T11:58:56.934Z,29.54
2019-06-26T12:01:29.361Z,30.67
2019-06-26T12:04:01.316Z,28.55
2019-06-26T12:06:33.288Z,30.83
2019-06-26T12:09:08.961Z,28.30
2019-06-26T12:11:41.179Z,28.57
2019-06-26T12:14:13.302Z,28.49
2019-06-26T12:16:45.534Z,29.73
2019-06-26T12:19:20.892Z,27.17
2019-06-26T12:21:51.117Z,28.09
2019-06-26T12:24:26.334Z,27.77
2019-06-26T12:26:56.750Z,27.59
2019-06-26T12:29:31.992Z,27.18
2019-06-26T12:32:02.509Z,28.10
2019-06-26T12:34:34.384Z,28.56
2019-06-26T12:37:06.418Z,25.80
2019-06-26T12:39:38.354Z,25.73
2019-06-26T12:42:10.320Z,25.89
2019-06-26T12:44:42.272Z,26.92
2019-06-26T12:47:14.324Z,28.17
2019-06-26T12:49:46.198Z,24.92
2019-06-26T12:52:18.345Z,25.95
2019-06-26T12:54:50.293Z,26.03
2019-06-26T12:57:22.258Z,25.09
2019-06-26T12:59:57.721Z,25.70
2019-06-26T13:02:27.797Z,24.30
2019-06-26T13:04:59.744Z,24.43
2019-06-26T13:07:32.408Z,24.49
2019-06-26T13:10:07.617Z,24.52
2019-06-26T13:12:39.825Z,24.67
2019-06-26T13:15:12.973Z,26.12
2019-06-26T13:17:45.114Z,24.16
2019-06-26T13:20:17.141Z,24.74
2019-06-26T13:22:49.742Z,24.54
2019-06-26T13:25:21.757Z,24.24
2019-06-26T13:27:55.135Z,24.52
2019-06-26T13:30:34.605Z,24.13
2019-06-26T13:33:06.638Z,24.31
2019-06-26T13:35:38.651Z,24.96
2019-06-26T13:38:10.683Z,24.37
2019-06-26T13:40:42.692Z,22.86
2019-06-26T13:43:14.600Z,21.49
2019-06-26T13:45:46.625Z,21.76
2019-06-26T13:48:18.596Z,21.17
2019-06-26T13:50:50.854Z,21.88
2019-06-26T13:53:25.756Z,23.12
2019-06-26T13:55:57.715Z,21.77
2019-06-26T13:58:29.744Z,21.83
2019-06-26T14:01:01.708Z,21.69
2019-06-26T14:03:33.744Z,21.39
2019-06-26T14:06:05.627Z,21.24
2019-06-26T14:08:37.599Z,21.47
2019-06-26T14:11:10.136Z,22.25
2019-06-26T14:13:42.289Z,22.44
2019-06-26T14:16:14.182Z,21.86
2019-06-26T14:18:46.183Z,22.33
2019-06-26T14:21:25.568Z,21.95
2019-06-26T14:23:51.883Z,21.71
2019-06-26T14:26:23.893Z,21.88
2019-06-26T14:28:56.161Z,22.08
2019-06-26T14:31:28.487Z,22.02
2019-06-26T14:34:00.451Z,22.49
2019-06-26T14:36:33.667Z,22.66
2019-06-26T14:39:07.301Z,22.73
2019-06-26T14:41:39.402Z,22.06
2019-06-26T14:44:11.434Z,22.25
2019-06-26T14:46:43.388Z,22.62
2019-06-26T14:49:16.414Z,22.59
2019-06-26T14:51:49.364Z,22.54
2019-06-26T14:54:21.393Z,22.69
2019-06-26T14:56:53.280Z,23.35
2019-06-26T14:59:25.302Z,22.97
2019-06-26T15:01:57.167Z,23.02
2019-06-26T15:04:29.211Z,22.79
2019-06-26T15:07:01.227Z,22.79
2019-06-26T15:09:33.198Z,23.13
2019-06-26T15:12:05.144Z,22.87
2019-06-26T15:14:37.114Z,22.95
2019-06-26T15:17:09.121Z,22.77
2019-06-26T15:19:41.207Z,23.74
2019-06-26T15:22:14.139Z,23.54
2019-06-26T15:24:46.113Z,22.98
2019-06-26T15:27:17.993Z,24.01
2019-06-26T15:29:49.951Z,21.93
2019-06-26T15:32:21.896Z,15.77
2019-06-26T15:34:53.786Z,13.07
2019-06-26T15:40:02.527Z,16.96
2019-06-26T15:42:34.545Z,15.77
2019-06-26T15:45:09.550Z,20.11
2019-06-26T15:47:41.554Z,16.04
2019-06-26T15:50:14.820Z,13.41
2019-06-26T15:52:46.763Z,12.43
2019-06-26T15:55:18.722Z,11.90
2019-06-26T15:57:50.656Z,11.81
2019-06-26T16:00:22.777Z,12.69
2019-06-26T16:02:55.215Z,13.15
2019-06-26T16:05:27.246Z,12.56
2019-06-26T16:07:59.179Z,12.68
2019-06-26T16:10:34.456Z,14.56
2019-06-26T16:13:05.150Z,13.49
2019-06-26T16:15:37.601Z,13.86
2019-06-26T16:18:09.377Z,13.68
2019-06-26T16:20:41.348Z,13.63
2019-06-26T16:23:13.800Z,13.50
2019-06-26T16:25:45.781Z,13.51
2019-06-26T16:28:17.871Z,13.61
2019-06-26T16:30:49.765Z,13.64
2019-06-26T16:33:21.772Z,13.98
2019-06-26T16:35:53.807Z,14.99
2019-06-26T16:38:25.764Z,14.28
2019-06-26T16:40:57.812Z,14.57
2019-06-26T16:43:29.624Z,14.38
2019-06-26T16:46:01.714Z,14.15
2019-06-26T16:48:33.732Z,17.53
2019-06-26T16:51:05.791Z,19.29
2019-06-26T16:53:37.893Z,19.51
2019-06-26T16:56:09.992Z,16.83
2019-06-26T16:58:41.876Z,16.51
2019-06-26T17:01:13.768Z,16.38
2019-06-26T17:03:45.792Z,15.97
2019-06-26T17:06:17.823Z,15.92
2019-06-26T17:08:50.103Z,16.82
2019-06-26T17:11:22.165Z,16.67
2019-06-26T17:13:54.050Z,17.20
2019-06-26T17:16:25.941Z,17.01
2019-06-26T17:18:57.912Z,19.86
2019-06-26T17:21:30.058Z,21.88
2019-06-26T17:24:02.000Z,21.82
2019-06-26T17:26:33.887Z,21.03
2019-06-26T17:29:05.835Z,21.84
2019-06-26T17:31:37.887Z,23.85
2019-06-26T17:34:09.844Z,23.98
2019-06-26T17:36:41.813Z,24.39
2019-06-26T17:39:13.795Z,25.77
2019-06-26T17:41:45.964Z,24.65
2019-06-26T17:44:18.825Z,25.62
2019-06-26T17:46:50.779Z,26.46
2019-06-26T17:49:22.757Z,27.15
2019-06-26T17:51:54.734Z,28.04
2019-06-26T17:54:29.652Z,28.20
2019-06-26T17:57:01.603Z,28.65
2019-06-26T17:59:33.759Z,29.52
2019-06-26T18:02:06.943Z,29.81
2019-06-26T18:04:39.011Z,30.54
2019-06-26T18:07:10.947Z,31.13
2019-06-26T18:09:42.901Z,31.22
2019-06-26T18:12:15.255Z,31.33
2019-06-26T18:14:47.109Z,30.74
2019-06-26T18:17:22.425Z,30.38
2019-06-26T18:19:53.991Z,31.29
2019-06-26T18:22:26.112Z,32.27
2019-06-26T18:24:58.128Z,32.45
2019-06-26T18:27:30.166Z,33.59
2019-06-26T18:30:03.151Z,34.52
2019-06-26T18:32:35.326Z,34.20
2019-06-26T18:35:08.544Z,34.19
2019-06-26T18:37:40.433Z,34.19
2019-06-26T18:40:12.844Z,33.86
2019-06-26T18:42:45.906Z,34.25
2019-06-26T18:45:18.341Z,34.96
2019-06-26T18:47:50.386Z,35.57
2019-06-26T18:50:22.524Z,35.75
2019-06-26T18:52:54.562Z,36.38
2019-06-26T18:55:26.425Z,37.00
2019-06-26T18:57:58.303Z,37.61
2019-06-26T19:00:30.179Z,38.06
2019-06-26T19:03:02.161Z,38.59
2019-06-26T19:05:34.568Z,38.76
2019-06-26T19:08:06.672Z,39.65
2019-06-26T19:10:38.700Z,39.85
2019-06-26T19:13:10.881Z,40.13
2019-06-26T19:15:42.975Z,40.71
2019-06-26T19:18:15.437Z,41.20
2019-06-26T19:20:47.380Z,41.42
2019-06-26T19:23:20.482Z,41.97
2019-06-26T19:25:52.578Z,41.97
2019-06-26T19:28:24.554Z,42.23
2019-06-26T19:30:56.765Z,42.28
2019-06-26T19:33:28.866Z,42.32
2019-06-26T19:36:01.054Z,42.13
2019-06-26T19:38:33.065Z,42.52
2019-06-26T19:41:08.523Z,41.98
2019-06-26T19:43:40.405Z,42.21
2019-06-26T19:46:12.355Z,42.39
2019-06-26T19:48:44.236Z,42.37
2019-06-26T19:51:16.344Z,43.04
2019-06-26T19:53:48.315Z,43.03
2019-06-26T19:56:20.336Z,43.63
2019-06-26T19:58:52.290Z,43.83
2019-06-26T20:01:24.776Z,44.33
2019-06-26T20:03:57.007Z,44.97
2019-06-26T20:06:29.097Z,45.36
2019-06-26T20:09:04.500Z,46.01
2019-06-26T20:11:36.674Z,46.56
2019-06-26T20:14:08.808Z,47.13
2019-06-26T20:16:40.962Z,47.58
2019-06-26T20:19:12.966Z,48.01
2019-06-26T20:21:45.159Z,48.68
2019-06-26T20:24:17.127Z,48.75
2019-06-26T20:26:49.124Z,49.31
2019-06-26T20:29:21.124Z,49.86
2019-06-26T20:31:53.040Z,49.83
2019-06-26T20:34:25.699Z,50.16
2019-06-26T20:36:57.719Z,50.56
2019-06-26T20:39:29.987Z,50.77
2019-06-26T20:42:03.063Z,51.22
2019-06-26T20:44:35.827Z,51.54
2019-06-26T20:47:07.966Z,51.92
2019-06-26T20:49:52.773Z,52.17
2019-06-26T20:52:16.849Z,52.32
2019-06-26T20:55:01.020Z,52.78
2019-06-26T20:57:26.286Z,53.36
2019-06-26T20:59:58.285Z,53.17
2019-06-26T21:02:30.298Z,53.49
2019-06-26T21:05:02.350Z,53.96
2019-06-26T21:07:34.424Z,54.28
2019-06-26T21:10:06.862Z,54.69
2019-06-26T21:12:38.756Z,54.67
2019-06-26T21:15:10.846Z,54.57
2019-06-26T21:17:42.860Z,54.41
2019-06-26T21:20:16.167Z,55.09
2019-06-26T21:22:48.516Z,55.54
2019-06-26T21:25:20.596Z,55.58
2019-06-26T21:27:52.532Z,55.66
2019-06-26T21:30:24.458Z,55.38
2019-06-26T21:32:56.599Z,55.15
2019-06-26T21:35:28.526Z,54.92
2019-06-26T21:38:00.395Z,55.50
2019-06-26T21:40:32.339Z,55.46
2019-06-26T21:43:04.277Z,55.83
2019-06-26T21:45:36.201Z,56.14
2019-06-26T21:48:08.139Z,56.44
2019-06-26T21:50:40.078Z,56.73
2019-06-26T21:53:12.013Z,57.14
2019-06-26T21:55:44.427Z,57.03
2019-06-26T21:58:33.991Z,57.45
2019-06-26T22:01:23.948Z,58.11
2019-06-26T22:04:14.063Z,58.47
2019-06-26T22:06:47.727Z,59.03
2019-06-26T22:09:37.476Z,59.39
2019-06-26T22:12:09.622Z,59.87
2019-06-26T22:14:41.713Z,60.22
2019-06-26T22:17:13.705Z,60.63
2019-06-26T22:19:45.802Z,61.01
2019-06-26T22:22:17.857Z,61.36
2019-06-26T22:24:49.868Z,61.76
2019-06-26T22:27:21.786Z,61.78
2019-06-26T22:29:54.124Z,62.24
2019-06-26T22:32:26.190Z,62.48
2019-06-26T22:34:58.483Z,62.38
2019-06-26T22:37:33.500Z,62.62
2019-06-26T22:40:07.183Z,62.95
2019-06-26T22:42:39.331Z,63.07
2019-06-26T22:45:11.713Z,63.53
2019-06-26T22:47:44.076Z,63.54
2019-06-26T22:50:16.227Z,63.87
2019-06-26T22:52:49.198Z,64.41
2019-06-26T22:55:21.272Z,64.89
2019-06-26T22:57:53.286Z,65.45
2019-06-26T23:00:25.682Z,66.13
2019-06-26T23:02:57.803Z,66.80
2019-06-26T23:05:29.739Z,67.33
2019-06-26T23:08:01.670Z,67.33
2019-06-26T23:10:33.781Z,67.30
2019-06-26T23:13:09.370Z,66.99
2019-06-26T23:15:39.606Z,66.91
2019-06-26T23:18:12.683Z,64.33
2019-06-26T23:20:44.643Z,62.62
2019-06-26T23:23:16.642Z,62.03
2019-06-26T23:25:48.506Z,61.65
2019-06-26T23:28:20.584Z,60.25
2019-06-26T23:30:52.517Z,59.48
2019-06-26T23:33:24.388Z,60.06
2019-06-26T23:35:56.422Z,60.35
2019-06-26T23:38:28.306Z,60.83
2019-06-26T23:41:00.306Z,60.85
2019-06-26T23:43:32.438Z,60.28
2019-06-26T23:46:04.506Z,60.36
2019-06-26T23:48:36.624Z,59.46
2019-06-26T23:51:08.479Z,59.63
2019-06-26T23:53:40.383Z,59.41
2019-06-26T23:56:12.251Z,59.36
2019-06-26T23:58:44.160Z,59.23
